Time,TemperatureF,DewpointF,PressureIn,WindDirection,WindDirectionDegrees,WindSpeedMPH,WindSpeedGustMPH,Humidity,HourlyPrecipIn,Conditions,Clouds,dailyrainin,SolarRadiationWatts/m^2,SoftwareType,DateUTC
2013-08-03 00:02:00,74.0,74.0,-100.00,WNW,286,2.0,-999.0,97,0.00,,,-99.99,0.000000,,2013-08-03 04:02:00,
2013-08-03 00:32:00,74.0,74.0,-100.00,West,262,2.0,-999.0,98,0.00,,,-99.99,0.000000,,2013-08-03 04:32:00,
2013-08-03 00:53:00,74.0,74.0,-100.00,WSW,253,5.0,-999.0,99,0.00,,,-99.99,0.000000,,2013-08-03 04:53:00,
2013-08-03 01:02:00,74.0,74.0,-100.00,WSW,253,5.0,-999.0,99,0.00,,,-99.99,0.000000,,2013-08-03 05:02:00,
2013-08-03 01:12:00,74.0,74.0,-100.00,SSW,199,3.0,-999.0,99,0.00,,,-99.99,0.000000,,2013-08-03 05:12:00,
2013-08-03 01:22:00,75.0,74.0,-100.00,SSW,203,2.0,-999.0,99,0.00,,,-99.99,0.000000,,2013-08-03 05:22:00,
2013-08-03 01:32:00,75.0,74.0,-100.00,WSW,241,4.0,-999.0,99,0.00,,,-99.99,0.000000,,2013-08-03 05:32:00,
2013-08-03 01:52:00,75.0,74.0,-100.00,South,184,3.0,-999.0,99,0.00,,,-99.99,0.000000,,2013-08-03 05:52:00,
2013-08-03 02:02:00,74.0,74.0,-100.00,SSW,203,3.0,-999.0,99,0.00,,,-99.99,0.000000,,2013-08-03 06:02:00,
2013-08-03 02:12:00,74.0,74.0,-100.00,SSW,203,3.0,-999.0,99,0.00,,,-99.99,0.000000,,2013-08-03 06:12:00,
2013-08-03 02:23:00,74.0,74.0,-100.00,SSW,202,3.0,-999.0,100,0.00,,,-99.99,0.000000,,2013-08-03 06:23:00,
2013-08-03 02:33:00,74.0,74.0,-100.00,SW,215,3.0,-999.0,100,0.00,,,-99.99,0.000000,,2013-08-03 06:33:00,
2013-08-03 02:52:00,74.0,74.0,-100.00,SW,220,3.0,-999.0,100,0.00,,,-99.99,0.000000,,2013-08-03 06:52:00,
2013-08-03 03:02:00,74.0,74.0,-100.00,SW,233,4.0,-999.0,100,0.00,,,-99.99,0.000000,,2013-08-03 07:02:00,
2013-08-03 03:22:00,74.0,74.0,-100.00,WSW,237,2.0,-999.0,100,0.00,,,-99.99,0.000000,,2013-08-03 07:22:00,
2013-08-03 03:32:00,74.0,74.0,-100.00,SW,219,2.0,-999.0,100,0.00,,,-99.99,0.000000,,2013-08-03 07:32:00,
2013-08-03 03:53:00,74.0,74.0,-100.00,SSW,203,3.0,-999.0,100,0.00,,,-99.99,0.000000,,2013-08-03 07:53:00,
2013-08-03 04:22:00,75.0,75.0,-100.00,SSW,211,3.0,-999.0,100,0.00,,,-99.99,0.000000,,2013-08-03 08:22:00,
2013-08-03 04:32:00,75.0,75.0,-100.00,SSW,212,4.0,-999.0,100,0.00,,,-99.99,0.000000,,2013-08-03 08:32:00,
2013-08-03 04:52:00,75.0,75.0,-100.00,SSW,207,4.0,-999.0,100,0.00,,,-99.99,0.000000,,2013-08-03 08:52:00,
2013-08-03 05:22:00,75.0,75.0,-100.00,South,189,3.0,-999.0,100,0.00,,,-99.99,0.000000,,2013-08-03 09:22:00,
2013-08-03 05:32:00,75.0,75.0,-100.00,SSW,205,3.0,-999.0,100,0.00,,,-99.99,0.000000,,2013-08-03 09:32:00,
2013-08-03 05:53:00,75.0,75.0,-100.00,South,189,2.0,-999.0,100,0.00,,,-99.99,0.000000,,2013-08-03 09:53:00,
2013-08-03 06:02:00,75.0,75.0,-100.00,South,181,3.0,-999.0,100,0.00,,,-99.99,0.000000,,2013-08-03 10:02:00,
2013-08-03 06:12:00,75.0,75.0,-100.00,South,181,3.0,-999.0,100,0.00,,,-99.99,0.000000,,2013-08-03 10:12:00,
2013-08-03 06:32:00,75.0,75.0,-100.00,SSE,165,2.0,-999.0,100,0.00,,,-99.99,0.000000,,2013-08-03 10:32:00,
2013-08-03 06:53:00,75.0,75.0,-100.00,South,174,2.0,-999.0,100,0.00,,,-99.99,0.000000,,2013-08-03 10:53:00,
2013-08-03 07:02:00,75.0,75.0,-100.00,South,174,2.0,-999.0,100,0.00,,,-99.99,0.000000,,2013-08-03 11:02:00,
2013-08-03 07:12:00,75.0,75.0,-100.00,SSW,208,2.0,-999.0,100,0.00,,,-99.99,0.000000,,2013-08-03 11:12:00,
2013-08-03 07:22:00,75.0,75.0,-100.00,SSW,194,1.0,-999.0,100,0.00,,,-99.99,0.000000,,2013-08-03 11:22:00,
2013-08-03 07:32:00,75.0,75.0,-100.00,South,170,2.0,-999.0,100,0.00,,,-99.99,0.000000,,2013-08-03 11:32:00,
2013-08-03 07:53:00,75.0,75.0,-100.00,South,176,2.0,-999.0,100,0.00,,,-99.99,0.000000,,2013-08-03 11:53:00,
2013-08-03 08:03:00,75.0,75.0,-100.00,South,176,2.0,-999.0,100,0.00,,,-99.99,0.000000,,2013-08-03 12:03:00,
2013-08-03 08:12:00,75.0,75.0,-100.00,South,189,3.0,-999.0,100,0.00,,,-99.99,0.000000,,2013-08-03 12:12:00,
2013-08-03 08:22:00,75.0,75.0,-100.00,SSW,196,4.0,-999.0,100,0.00,,,-99.99,0.000000,,2013-08-03 12:22:00,
2013-08-03 08:43:00,76.0,76.0,-100.00,SSW,204,3.0,-999.0,100,0.00,,,-99.99,0.000000,,2013-08-03 12:43:00,
2013-08-03 08:53:00,76.0,76.0,-100.00,SSW,213,3.0,-999.0,100,0.00,,,-99.99,0.000000,,2013-08-03 12:53:00,
2013-08-03 09:12:00,77.0,77.0,-100.00,SSW,206,3.0,-999.0,100,0.00,,,-99.99,0.000000,,2013-08-03 13:12:00,
2013-08-03 09:43:00,78.0,78.0,-100.00,South,170,3.0,-999.0,100,0.00,,,-99.99,0.000000,,2013-08-03 13:43:00,
2013-08-03 09:52:00,78.0,78.0,-100.00,South,190,4.0,-999.0,99,0.00,,,-99.99,0.000000,,2013-08-03 13:52:00,
2013-08-03 10:13:00,78.0,78.0,-100.00,SSW,208,4.0,-999.0,99,0.00,,,-99.99,0.000000,,2013-08-03 14:13:00,
2013-08-03 10:22:00,79.0,78.0,-100.00,SSW,213,4.0,-999.0,97,0.00,,,-99.99,0.000000,,2013-08-03 14:22:00,
2013-08-03 10:32:00,79.0,78.0,-100.00,SSW,203,4.0,-999.0,96,0.00,,,-99.99,0.000000,,2013-08-03 14:32:00,
2013-08-03 10:42:00,79.0,78.0,-100.00,SSW,203,4.0,-999.0,96,0.00,,,-99.99,0.000000,,2013-08-03 14:42:00,
2013-08-03 10:52:00,80.0,79.0,-100.00,SSW,198,3.0,-999.0,95,0.00,,,-99.99,0.000000,,2013-08-03 14:52:00,
2013-08-03 11:23:00,82.0,79.0,-100.00,South,177,4.0,-999.0,92,0.00,,,-99.99,0.000000,,2013-08-03 15:23:00,
2013-08-03 11:53:00,82.0,79.0,-100.00,South,174,3.0,-999.0,89,0.00,,,-99.99,0.000000,,2013-08-03 15:53:00,
2013-08-03 12:23:00,83.0,79.0,-100.00,SSE,163,8.0,-999.0,88,0.00,,,-99.99,0.000000,,2013-08-03 16:23:00,
2013-08-03 12:53:00,78.0,73.0,-100.00,South,184,9.0,-999.0,85,0.00,,,-99.99,0.000000,,2013-08-03 16:53:00,
2013-08-03 13:03:00,78.0,73.0,-100.00,South,184,9.0,-999.0,85,0.00,,,-99.99,0.000000,,2013-08-03 17:03:00,
2013-08-03 13:22:00,78.0,73.0,-100.00,South,170,8.0,-999.0,85,0.00,,,-99.99,0.000000,,2013-08-03 17:22:00,
2013-08-03 13:52:00,79.0,73.0,-100.00,SSE,163,6.0,-999.0,81,0.00,,,-99.99,0.000000,,2013-08-03 17:52:00,
2013-08-03 14:22:00,80.0,76.0,-100.00,SSE,163,8.0,-999.0,88,0.00,,,-99.99,0.000000,,2013-08-03 18:22:00,
2013-08-03 14:32:00,80.0,77.0,-100.00,SSE,154,9.0,-999.0,90,0.00,,,-99.99,0.000000,,2013-08-03 18:32:00,
2013-08-03 14:53:00,80.0,77.0,-100.00,SSE,147,8.0,-999.0,90,0.00,,,-99.99,0.000000,,2013-08-03 18:53:00,
2013-08-03 15:03:00,80.0,77.0,-100.00,SSE,147,8.0,-999.0,90,0.00,,,-99.99,0.000000,,2013-08-03 19:03:00,
2013-08-03 15:22:00,81.0,78.0,-100.00,SSE,155,8.0,-999.0,91,0.00,,,-99.99,0.000000,,2013-08-03 19:22:00,
2013-08-03 15:32:00,82.0,79.0,-100.00,SSE,163,9.0,-999.0,90,0.00,,,-99.99,0.000000,,2013-08-03 19:32:00,
2013-08-03 15:53:00,83.0,79.0,-100.00,SSE,163,9.0,-999.0,88,0.00,,,-99.99,0.000000,,2013-08-03 19:53:00,
2013-08-03 16:02:00,83.0,79.0,-100.00,SSE,168,9.0,-999.0,86,0.00,,,-99.99,0.000000,,2013-08-03 20:02:00,
2013-08-03 16:22:00,83.0,78.0,-100.00,South,175,11.0,-999.0,85,0.00,,,-99.99,0.000000,,2013-08-03 20:22:00,
2013-08-03 16:32:00,81.0,75.0,-100.00,SSW,197,12.0,-999.0,83,0.00,,,-99.99,0.000000,,2013-08-03 20:32:00,
2013-08-03 16:52:00,80.0,75.0,-100.00,SSW,193,10.0,-999.0,84,0.00,,,-99.99,0.000000,,2013-08-03 20:52:00,
2013-08-03 17:02:00,80.0,75.0,-100.00,SSW,197,9.0,-999.0,85,0.00,,,-99.99,0.000000,,2013-08-03 21:02:00,
2013-08-03 17:12:00,80.0,75.0,-100.00,SSW,197,9.0,-999.0,85,0.00,,,-99.99,0.000000,,2013-08-03 21:12:00,
2013-08-03 17:22:00,79.0,75.0,-100.00,SSW,204,8.0,-999.0,89,0.00,,,-99.99,0.000000,,2013-08-03 21:22:00,
2013-08-03 17:52:00,78.0,74.0,-100.00,SW,225,10.0,-999.0,86,0.00,,,-99.99,0.000000,,2013-08-03 21:52:00,
2013-08-03 18:22:00,77.0,74.0,-100.00,West,268,8.0,-999.0,91,0.00,,,-99.99,0.000000,,2013-08-03 22:22:00,
2013-08-03 18:33:00,76.0,74.0,-100.00,WNW,298,5.0,-999.0,93,0.00,,,-99.99,0.000000,,2013-08-03 22:33:00,
2013-08-03 18:52:00,75.0,74.0,-100.00,WNW,302,4.0,-999.0,95,0.03,,,-99.99,0.000000,,2013-08-03 22:52:00,
2013-08-03 19:02:00,75.0,74.0,-100.00,WNW,295,4.0,-999.0,96,0.00,,,-99.99,0.000000,,2013-08-03 23:02:00,
2013-08-03 19:22:00,75.0,74.0,-100.00,West,279,5.0,-999.0,97,0.00,,,-99.99,0.000000,,2013-08-03 23:22:00,
2013-08-03 19:32:00,75.0,74.0,-100.00,West,266,5.0,-999.0,98,0.03,,,-99.99,0.000000,,2013-08-03 23:32:00,
2013-08-03 19:52:00,75.0,74.0,-100.00,WSW,243,5.0,-999.0,99,0.03,,,-99.99,0.000000,,2013-08-03 23:52:00,
2013-08-03 20:02:00,75.0,74.0,-100.00,WSW,243,5.0,-999.0,99,0.03,,,-99.99,0.000000,,2013-08-04 00:02:00,
2013-08-03 20:22:00,74.0,74.0,-100.00,WSW,243,3.0,-999.0,99,0.00,,,-99.99,0.000000,,2013-08-04 00:22:00,
2013-08-03 20:32:00,74.0,74.0,-100.00,North,2,2.0,-999.0,99,0.00,,,-99.99,0.000000,,2013-08-04 00:32:00,
2013-08-03 20:53:00,74.0,74.0,-100.00,NNE,20,3.0,-999.0,99,0.00,,,-99.99,0.000000,,2013-08-04 00:53:00,
2013-08-03 21:02:00,74.0,74.0,-100.00,NNW,337,1.0,-999.0,100,0.00,,,-99.99,0.000000,,2013-08-04 01:02:00,
2013-08-03 21:22:00,74.0,74.0,-100.00,NNE,12,1.0,-999.0,100,0.00,,,-99.99,0.000000,,2013-08-04 01:22:00,
2013-08-03 21:53:00,74.0,74.0,-100.00,WNW,295,1.0,-999.0,100,0.00,,,-99.99,0.000000,,2013-08-04 01:53:00,
2013-08-03 22:03:00,74.0,74.0,-100.00,WNW,295,1.0,-999.0,100,0.00,,,-99.99,0.000000,,2013-08-04 02:03:00,
2013-08-03 22:22:00,74.0,74.0,-100.00,ESE,102,1.0,-999.0,100,0.00,,,-99.99,0.000000,,2013-08-04 02:22:00,
2013-08-03 22:52:00,74.0,74.0,-100.00,SSW,209,3.0,-999.0,100,0.00,,,-99.99,0.000000,,2013-08-04 02:52:00,
2013-08-03 23:22:00,74.0,74.0,-100.00,SW,226,3.0,-999.0,100,0.00,,,-99.99,0.000000,,2013-08-04 03:22:00,
2013-08-03 23:32:00,74.0,74.0,-100.00,SW,220,3.0,-999.0,100,0.00,,,-99.99,0.000000,,2013-08-04 03:32:00,
2013-08-03 23:52:00,74.0,74.0,-100.00,South,185,3.0,-999.0,100,0.00,,,-99.99,0.000000,,2013-08-04 03:52:00,